1982 FAYE (1982227N09140)


On this page: IBTrACS data - Map and Plots - Positions - Intensities - Original source data

Summary

Start Aug 15
End Sep 3
Basin WP
LMI 90 kt
Sources jtwc_wp
tokyo
cma
hko
td9636
In WMO? Yes
Previous storm 1982 LANE (EP)
Previous in basin 1982 DOT (WP)
Concurrent storms 1982 CECIL (WP)
1982 DOT (WP)
1982 KRISTY (EP)
1982 LANE (EP)
1982 FAYE (WP)
1982 ELLIS (WP)
1982 GORDON (WP)
1982 BERYL (NA)
1982 AKONI (EP)
1982 MIRIAM (EP)
1982 HOPE (WP)
Next in basin 1982 ELLIS (WP)
Next storm 1982 ELLIS (WP)

top of page IBTrACS Data: File Access

top of page HURSAT Data: File Access

Image of storm

top of page Plots:

Map of storm track will not appear if FTP is down
Time series of cyclone Maximum Sustained Wind will not appear if FTP is down
Time series of cyclone Minimum Central Pressure will not appear if FTP is down

top of page Track Data:Position

jtwc_wp tokyo cma hko td9636
Date Lat Lon Lat Lon Lat Lon Lat Lon Lat Lon
1982-08-15 00:00:00 8.6 140.4
1982-08-15 06:00:00 9.0 140.1
1982-08-15 12:00:00 9.4 139.8
1982-08-15 18:00:00 9.7 139.2
1982-08-16 00:00:00 10.0 138.5
1982-08-16 06:00:00 10.2 137.5
1982-08-16 12:00:00 10.3 136.4
1982-08-16 18:00:00 10.5 135.4
1982-08-17 00:00:00 10.6 134.5
1982-08-17 06:00:00 10.7 133.7
1982-08-17 12:00:00 10.7 132.8
1982-08-17 18:00:00 10.8 131.7
1982-08-18 00:00:00 10.8 130.6
1982-08-18 06:00:00 10.8 129.8
1982-08-18 12:00:00 10.8 129.0
1982-08-18 18:00:00 10.8 128.2
1982-08-19 00:00:00 11.9 127.7 10.8 127.4
1982-08-19 06:00:00 11.9 126.6 10.9 126.7
1982-08-19 12:00:00 11.5 125.9 11.0 126.0
1982-08-19 18:00:00 11.0 125.0 11.1 125.4
1982-08-20 00:00:00 11.3 124.8 12.0 124.0 11.3 124.0 11.3 124.8
1982-08-20 06:00:00 11.7 123.8 12.0 123.0 11.6 123.2 11.6 123.8
1982-08-20 12:00:00 11.9 122.8 12.0 122.0 11.9 122.7 11.9 122.8
1982-08-20 18:00:00 12.1 121.9 12.0 121.5 11.8 121.6 12.0 121.8
1982-08-21 00:00:00 12.1 121.0 12.0 121.0 12.2 120.8 12.1 121.0
jtwc_wp tokyo cma hko td9636
1982-08-21 06:00:00 12.2 120.3 12.0 120.6 12.0 120.0 12.1 120.0 12.2 120.2
1982-08-21 12:00:00 12.3 119.7 12.0 120.3 12.2 119.4 12.1 119.8 12.3 119.7
1982-08-21 18:00:00 12.0 119.3 12.0 119.9 12.2 119.4 12.2 119.6 12.1 119.6
1982-08-22 00:00:00 12.0 119.6 12.0 119.5 12.2 119.4 12.2 119.4 12.0 119.6
1982-08-22 06:00:00 12.2 119.5 12.2 119.3 12.5 119.4 12.3 119.3 12.2 119.5
1982-08-22 12:00:00 12.4 119.3 12.3 119.2 12.8 119.3 12.4 119.2 12.4 119.3
1982-08-22 18:00:00 12.5 119.1 12.5 119.0 12.8 118.9 12.5 119.1 12.5 119.0
1982-08-23 00:00:00 12.6 118.8 12.6 118.8 12.8 118.9 12.5 118.9 12.6 118.8
1982-08-23 06:00:00 12.6 118.7 12.7 118.7 12.8 118.8 12.6 118.8 12.7 118.7
1982-08-23 12:00:00 12.8 118.7 12.8 118.6 12.8 118.8 12.8 118.6 12.8 118.7
1982-08-23 18:00:00 12.9 119.0 12.9 119.0 13.0 119.0 12.9 118.9 13.0 119.0
1982-08-24 00:00:00 13.4 119.3 13.3 119.5 13.3 119.3 13.1 119.3 13.4 119.3
1982-08-24 06:00:00 14.1 119.6 13.8 119.7 14.1 119.5 13.9 119.7 14.1 119.5
1982-08-24 12:00:00 15.0 119.7 14.8 119.8 15.1 119.7 14.7 119.7 15.0 119.7
1982-08-24 18:00:00 15.9 119.8 15.8 119.7 15.9 119.7 15.9 119.7 16.1 120.0
1982-08-25 00:00:00 17.2 120.2 17.0 119.9 17.2 120.3 17.1 120.1 17.2 120.2
1982-08-25 06:00:00 18.2 119.8 18.0 119.9 18.3 120.1 18.2 120.0 18.2 120.0
1982-08-25 12:00:00 19.0 119.9 18.8 120.1 18.9 120.0 19.0 120.0 19.0 119.9
1982-08-25 18:00:00 19.4 120.2 19.3 120.3 19.5 120.2 19.5 120.3 19.4 120.1
1982-08-26 00:00:00 19.7 120.5 19.8 120.6 19.9 120.5 19.8 120.6 19.7 120.5
1982-08-26 06:00:00 20.4 121.3 20.6 121.3 20.5 121.3 20.5 121.2 20.5 121.1
1982-08-26 12:00:00 21.2 121.9 21.1 122.0 21.1 121.9 21.1 121.9 21.2 121.9
1982-08-26 18:00:00 21.5 122.9 21.4 123.0 21.5 123.0 21.6 122.7 21.5 122.9
1982-08-27 00:00:00 21.8 124.0 21.8 124.0 21.8 124.0 22.1 123.9 21.8 124.0
jtwc_wp tokyo cma hko td9636
1982-08-27 06:00:00 22.4 125.0 22.3 125.2 22.5 125.3 22.6 125.0 22.3 124.9
1982-08-27 12:00:00 22.8 126.0 22.8 126.6 23.1 127.0 23.0 126.3 22.8 126.0
1982-08-27 18:00:00 23.0 127.4 23.2 128.0 23.5 128.0 23.4 127.8 23.2 127.6
1982-08-28 00:00:00 23.5 129.2 23.7 129.5 24.0 129.5 23.7 129.4 23.5 129.2
1982-08-28 06:00:00 24.1 130.6 23.9 130.6 24.2 130.8 24.0 130.7 23.9 130.5
1982-08-28 12:00:00 24.2 131.5 24.0 131.3 24.2 131.5 24.2 131.5 24.2 131.5
1982-08-28 18:00:00 24.2 131.9 24.1 131.8 24.1 132.0 24.2 131.9 24.3 132.1
1982-08-29 00:00:00 24.3 132.3 24.2 132.2 24.4 132.2 24.2 132.1 24.3 132.3
1982-08-29 06:00:00 24.5 132.4 24.1 132.2 24.6 132.3 24.1 132.1 24.4 132.3
1982-08-29 12:00:00 24.3 132.2 24.0 132.1 24.4 132.2 24.0 132.1 24.3 132.2
1982-08-29 18:00:00 24.0 132.1 23.8 132.0 24.1 132.2 23.9 132.1 24.0 132.0
1982-08-30 00:00:00 23.6 131.9 23.5 132.0 23.7 132.1 23.6 132.0 23.6 131.9
1982-08-30 06:00:00 23.3 131.8 23.3 132.0 23.3 131.9 23.3 131.9 23.3 131.8
1982-08-30 12:00:00 23.0 131.8 23.0 131.8 23.1 131.9 23.1 132.0 23.0 131.8
1982-08-30 18:00:00 23.0 132.0 22.8 131.9 23.0 132.0 22.9 132.0 22.8 131.8
1982-08-31 00:00:00 22.8 131.8 22.8 131.7 22.8 131.8 22.8 131.9 22.8 131.8
1982-08-31 06:00:00 22.9 131.6 22.9 131.6 23.0 131.6 23.0 131.6 22.9 131.6
1982-08-31 12:00:00 23.0 131.1 23.0 131.2 23.0 131.1 23.0 131.2 23.0 131.1
1982-08-31 18:00:00 23.0 130.5 23.0 130.4 23.0 130.4 23.0 130.5 23.0 130.4
1982-09-01 00:00:00 23.0 129.6 23.0 129.5 23.0 129.7 23.0 129.6 23.0 129.6
1982-09-01 06:00:00 22.9 128.7 23.0 128.7 22.8 128.8 22.9 128.7 22.9 128.7
1982-09-01 12:00:00 22.8 127.8 23.0 128.0 22.9 128.0 22.9 127.9 22.8 127.8
1982-09-01 18:00:00 23.0 126.8 23.0 127.0 22.9 127.0 22.9 126.9 22.9 126.8
1982-09-02 00:00:00 23.0 125.7 23.0 126.0 23.0 126.0 22.9 125.8 23.0 125.7
jtwc_wp tokyo cma hko td9636
1982-09-02 06:00:00 22.8 124.6 22.5 124.5 22.5 124.7 22.9 124.5 22.8 124.6
1982-09-02 12:00:00 22.5 123.4 22.5 123.5 22.2 123.6 22.4 123.4 22.5 123.4
1982-09-02 18:00:00 22.1 122.2 21.8 122.7 22.0 122.8 21.9 122.7 22.1 122.2
1982-09-03 00:00:00 21.6 121.1 21.0 122.0 21.5 121.8 21.5 122.0 21.6 121.1
1982-09-03 06:00:00 20.9 119.8 20.5 121.5 20.8 120.6 21.0 121.2
1982-09-03 12:00:00 19.9 118.7 20.7 120.1
1982-09-03 18:00:00 20.7 119.0

top of pageTrack Data:Intensity

jtwc_wp tokyo cma hko td9636
Date Wind Pres Wind Pres Wind Pres Wind Pres Wind Pres
1982-08-15 00:00:00
1982-08-15 06:00:00
1982-08-15 12:00:00
1982-08-15 18:00:00
1982-08-16 00:00:00
1982-08-16 06:00:00
1982-08-16 12:00:00
1982-08-16 18:00:00
1982-08-17 00:00:00
1982-08-17 06:00:00
1982-08-17 12:00:00
1982-08-17 18:00:00
1982-08-18 00:00:00
1982-08-18 06:00:00
1982-08-18 12:00:00
1982-08-18 18:00:00
1982-08-19 00:00:00 19. 1005.
1982-08-19 06:00:00 19. 1005.
1982-08-19 12:00:00 19. 1005.
1982-08-19 18:00:00 19. 1005.
1982-08-20 00:00:00 20. 1004. 19. 1005. 20.
1982-08-20 06:00:00 25. 1004. 19. 1005. 20.
1982-08-20 12:00:00 25. 1004. 19. 1005. 25.
1982-08-20 18:00:00 30. 1004. 23. 1004. 25.
1982-08-21 00:00:00 30. 1004. 29. 1002. 30.
jtwc_wp tokyo cma hko td9636
1982-08-21 06:00:00 35. 1004. 29. 1002. 25. 1002. 30.
1982-08-21 12:00:00 35. 1004. 29. 1002. 25. 1002. 35.
1982-08-21 18:00:00 40. 1004. 29. 1000. 30. 1000. 35.
1982-08-22 00:00:00 45. 1004. 29. 998. 30. 998. 45.
1982-08-22 06:00:00 55. 996. 39. 990. 40. 995. 45.
1982-08-22 12:00:00 65. 45. 980. 49. 983. 55. 984. 65.
1982-08-22 18:00:00 70. 50. 970. 58. 975. 60. 975. 65.
1982-08-23 00:00:00 75. 70. 970. 58. 970. 65. 970. 75.
1982-08-23 06:00:00 80. 70. 960. 68. 965. 70. 965. 75.
1982-08-23 12:00:00 85. 80. 960. 68. 962. 75. 963. 85.
1982-08-23 18:00:00 85. 80. 960. 78. 961. 80. 960. 85.
1982-08-24 00:00:00 85. 70. 960. 78. 960. 80. 960. 85.
1982-08-24 06:00:00 90. 70. 960. 68. 960. 80. 960. 85.
1982-08-24 12:00:00 85. 70. 970. 68. 965. 80. 960. 85.
1982-08-24 18:00:00 75. 70. 970. 58. 970. 70. 970. 85.
1982-08-25 00:00:00 65. 60. 980. 49. 976. 60. 980. 65.
1982-08-25 06:00:00 55. 55. 985. 39. 985. 50. 985. 65.
1982-08-25 12:00:00 50. 40. 990. 39. 988. 50. 985. 50.
1982-08-25 18:00:00 50. 50. 985. 39. 990. 50. 985. 50.
1982-08-26 00:00:00 45. 50. 985. 39. 990. 50. 987. 45.
1982-08-26 06:00:00 40. 45. 992. 39. 994. 45. 990. 45.
1982-08-26 12:00:00 40. 35. 996. 39. 998. 40. 997. 40.
1982-08-26 18:00:00 35. 35. 998. 29. 998. 35. 998. 40.
1982-08-27 00:00:00 30. 1000. 29. 998. 35. 998. 30.
jtwc_wp tokyo cma hko td9636
1982-08-27 06:00:00 25. 1000. 29. 998. 30. 1000. 30.
1982-08-27 12:00:00 30. 1000. 23. 1002. 25. 1001. 30.
1982-08-27 18:00:00 30. 1000. 23. 1002. 25. 1001. 30.
1982-08-28 00:00:00 35. 35. 998. 29. 995. 30. 1000. 35.
1982-08-28 06:00:00 50. 35. 994. 39. 995. 40. 995. 35.
1982-08-28 12:00:00 65. 40. 990. 49. 985. 65. 975. 65.
1982-08-28 18:00:00 70. 45. 985. 49. 980. 65. 975. 65.
1982-08-29 00:00:00 70. 55. 980. 58. 980. 60. 980. 70.
1982-08-29 06:00:00 70. 55. 980. 58. 980. 60. 980. 70.
1982-08-29 12:00:00 70. 55. 985. 49. 983. 60. 980. 70.
1982-08-29 18:00:00 60. 55. 985. 49. 988. 50. 985. 70.
1982-08-30 00:00:00 50. 45. 990. 49. 992. 45. 990. 50.
1982-08-30 06:00:00 45. 40. 992. 39. 995. 40. 995. 50.
1982-08-30 12:00:00 40. 40. 996. 39. 995. 40. 997. 40.
1982-08-30 18:00:00 40. 40. 996. 39. 995. 40. 997. 40.
1982-08-31 00:00:00 35. 40. 996. 39. 996. 40. 997. 35.
1982-08-31 06:00:00 30. 40. 996. 39. 998. 35. 999. 35.
1982-08-31 12:00:00 30. 1000. 29. 998. 30. 999. 30.
1982-08-31 18:00:00 25. 1000. 29. 998. 30. 999. 30.
1982-09-01 00:00:00 25. 1000. 23. 1000. 25. 1000. 25.
1982-09-01 06:00:00 20. 1000. 23. 1000. 25. 1000. 25.
1982-09-01 12:00:00 20. 1000. 23. 1000. 25. 1000. 20.
1982-09-01 18:00:00 25. 1000. 23. 1000. 25. 1000. 20.
1982-09-02 00:00:00 25. 1000. 23. 1000. 25. 1000. 25.
jtwc_wp tokyo cma hko td9636
1982-09-02 06:00:00 25. 1000. 23. 1000. 25. 1000. 25.
1982-09-02 12:00:00 30. 1000. 23. 1002. 25. 1000. 30.
1982-09-02 18:00:00 30. 1002. 23. 1002. 30. 1000. 30.
1982-09-03 00:00:00 25. 1004. 23. 1002. 30. 1000. 25.
1982-09-03 06:00:00 20. 1004. 19. 1003. 25. 1000.
1982-09-03 12:00:00 19. 1004. 25. 1001.
1982-09-03 18:00:00 25. 1002.

top of page Links to source data

Source Source file Format
jtwc_wp bwp151982.txt ATCF
tokyo bst_all.txt:Line=31291:FAYE:8214 JMA text table
cma CH1982BST.txt:Storm=15:Faye CMA text table
hko tc-besttrack-data-current.txt:Line=15316:FAYE HKO Text table
td9636 cons_worldwide_trop_cyclone_18710101-19891231-003:Line=28195 TD 9636